Terminal Aerodrome Forecast
Issued by NWS

Home | Current Version | Previous Version | Text Only | Print | Product List | Glossary On
Versions: 1 2 3 4 5 6 7 8 9 10 11 12 13 14 15 16 17 18
550
FTUS43 KMQT 231732
TAFSAW
TAF
KSAW 231732Z 2318/2418 21013G20KT P6SM FEW250
     FM240100 20009KT P6SM BKN250
     FM241100 19007KT 6SM BR BKN080
     FM241300 18007KT 5SM -SHRA BR OVC015
     FM241500 19009KT 6SM -SHRA OVC015=

USA.gov is the U.S. government's official web portal to all federal, state and local government web resources and services.